createdAt,value
2023-04-29T00:03:52.709Z,61938.94
2023-04-29T00:08:55.541Z,61914.41
2023-04-29T00:13:59.548Z,61937.28
2023-04-29T00:19:02.235Z,61941.94
2023-04-29T00:24:04.983Z,61922.69
2023-04-29T00:29:08.917Z,61914.47
2023-04-29T00:34:11.733Z,61924.34
2023-04-29T00:39:15.472Z,61937.34
2023-04-29T00:44:19.519Z,61946.78
2023-04-29T00:49:22.448Z,61925.41
2023-04-29T00:54:25.499Z,61943.13
2023-04-29T00:59:32.166Z,61950.97
2023-04-29T01:04:35.036Z,61897.44
2023-04-29T01:09:56.812Z,61952.56
2023-04-29T01:15:05.757Z,61940.53
2023-04-29T01:20:10.817Z,61933.84
2023-04-29T01:25:14.765Z,61944.13
2023-04-29T01:30:29.147Z,61950.28
2023-04-29T01:35:45.723Z,61930.50
2023-04-29T01:40:59.139Z,61925.22
2023-04-29T01:46:04.321Z,61911.59
2023-04-29T01:51:07.375Z,61931.78
2023-04-29T01:56:11.445Z,61941.72
2023-04-29T02:01:14.334Z,61937.00
2023-04-29T02:06:17.036Z,61928.19
2023-04-29T02:11:21.053Z,61882.94
2023-04-29T02:16:23.701Z,61915.59
2023-04-29T02:21:27.135Z,61905.16
2023-04-29T02:26:31.167Z,61923.41
2023-04-29T02:31:33.880Z,61924.94
2023-04-29T02:36:36.595Z,61889.50
2023-04-29T02:41:40.724Z,61926.31
2023-04-29T02:46:45.744Z,61914.91
2023-04-29T02:51:49.705Z,61896.72
2023-04-29T02:56:53.822Z,61928.44
2023-04-29T03:01:57.018Z,61889.94
2023-04-29T03:06:59.715Z,61917.97
2023-04-29T03:12:03.965Z,61832.22
2023-04-29T03:17:06.682Z,61926.72
2023-04-29T03:22:10.596Z,61923.19
2023-04-29T03:27:14.483Z,61922.09
2023-04-29T03:32:17.079Z,61925.66
2023-04-29T03:37:19.681Z,61910.59
2023-04-29T03:42:23.669Z,61913.72
2023-04-29T03:47:26.284Z,61895.84
2023-04-29T03:52:29.453Z,61893.34
2023-04-29T03:57:33.426Z,61914.56
2023-04-29T04:02:36.344Z,61889.53
2023-04-29T04:07:39.058Z,61902.50
2023-04-29T04:12:44.252Z,61908.66
2023-04-29T04:17:47.072Z,61878.56
2023-04-29T04:22:49.765Z,61909.72
2023-04-29T04:27:54.453Z,61868.75
2023-04-29T04:32:57.138Z,61890.00
2023-04-29T04:37:59.815Z,61855.13
2023-04-29T04:43:03.784Z,61917.47
2023-04-29T04:48:06.978Z,61838.56
2023-04-29T04:53:09.658Z,61921.75
2023-04-29T04:58:13.585Z,61908.25
2023-04-29T05:03:16.881Z,61894.34
2023-04-29T05:08:19.494Z,61903.16
2023-04-29T05:13:25.402Z,61920.34
2023-04-29T05:18:28.051Z,61898.97
2023-04-29T05:23:31.082Z,61883.84
2023-04-29T05:28:35.015Z,61900.19
2023-04-29T05:33:37.895Z,61916.84
2023-04-29T05:38:40.821Z,61910.19
2023-04-29T05:43:44.823Z,61888.06
2023-04-29T05:48:47.435Z,61945.56
2023-04-29T05:53:50.066Z,61950.44
2023-04-29T05:58:54.035Z,61969.00
2023-04-29T06:03:56.947Z,61936.75
2023-04-29T06:09:01.819Z,61939.69
2023-04-29T06:14:05.774Z,61942.88
2023-04-29T06:19:08.403Z,61951.19
2023-04-29T06:24:10.967Z,61983.59
2023-04-29T06:29:14.838Z,61983.19
2023-04-29T06:34:17.440Z,61976.19
2023-04-29T06:39:19.982Z,62006.34
2023-04-29T06:44:23.978Z,61985.88
2023-04-29T06:49:26.717Z,62025.13
2023-04-29T06:54:29.608Z,61981.94
2023-04-29T06:59:33.759Z,62018.94
2023-04-29T07:04:37.572Z,62054.41
2023-04-29T07:09:40.378Z,62055.13
2023-04-29T07:14:44.319Z,62097.13
2023-04-29T07:19:47.021Z,62077.31
2023-04-29T07:24:49.697Z,62081.94
2023-04-29T07:29:53.606Z,62072.78
2023-04-29T07:34:56.282Z,62110.19
2023-04-29T07:39:58.818Z,62177.88
2023-04-29T07:45:03.292Z,62130.50
2023-04-29T07:50:06.850Z,62168.78
2023-04-29T07:55:10.173Z,62176.44
2023-04-29T08:00:14.315Z,62203.81
2023-04-29T08:05:17.359Z,62183.56
2023-04-29T08:10:22.445Z,62192.25
2023-04-29T08:15:26.835Z,62225.03
2023-04-29T08:20:29.480Z,62298.38
2023-04-29T08:25:32.095Z,62330.97
2023-04-29T08:30:38.898Z,62397.81
2023-04-29T08:35:42.065Z,62425.94
2023-04-29T08:40:45.802Z,62394.44
2023-04-29T08:45:51.074Z,62438.06
2023-04-29T08:50:53.820Z,62608.38
2023-04-29T08:55:59.648Z,62582.25
2023-04-29T09:01:04.038Z,62582.69
2023-04-29T09:06:07.618Z,62635.09
2023-04-29T09:11:11.798Z,62670.91
2023-04-29T09:16:15.854Z,62694.31
2023-04-29T09:21:22.327Z,62719.22
2023-04-29T09:26:25.907Z,62955.75
2023-04-29T09:31:29.926Z,63047.16
2023-04-29T09:36:45.000Z,63011.16
2023-04-29T09:42:02.721Z,63073.00
2023-04-29T09:47:08.037Z,62927.19
2023-04-29T09:52:12.385Z,63084.03
2023-04-29T09:57:15.983Z,63135.38
2023-04-29T10:02:20.264Z,62799.31
2023-04-29T10:07:23.528Z,62798.28
2023-04-29T10:12:27.307Z,62860.78
2023-04-29T10:17:37.532Z,63046.34
2023-04-29T10:22:47.100Z,62994.88
2023-04-29T10:27:53.286Z,62961.59
2023-04-29T10:32:58.585Z,62804.19
2023-04-29T10:38:09.532Z,62936.06
2023-04-29T10:43:12.380Z,63269.44
2023-04-29T10:48:18.846Z,63059.28
2023-04-29T10:53:22.067Z,62912.94
2023-04-29T10:58:44.402Z,62793.13
2023-04-29T11:03:54.750Z,62826.50
2023-04-29T11:09:03.271Z,62922.31
2023-04-29T11:14:05.858Z,63049.69
2023-04-29T11:19:12.378Z,62960.41
2023-04-29T11:24:17.344Z,62827.72
2023-04-29T11:29:21.361Z,62766.66
2023-04-29T11:34:27.630Z,62720.13
2023-04-29T11:39:30.279Z,62878.03
2023-04-29T11:44:35.674Z,63125.78
2023-04-29T11:49:39.648Z,63156.06
2023-04-29T11:54:42.309Z,63000.75
2023-04-29T11:59:44.808Z,62830.94
2023-04-29T12:04:48.992Z,62771.22
2023-04-29T12:09:51.919Z,62697.03
2023-04-29T12:14:55.593Z,62710.13
2023-04-29T12:20:00.069Z,62829.63
2023-04-29T12:25:04.601Z,63063.72
2023-04-29T12:30:09.473Z,63191.53
2023-04-29T12:35:22.254Z,63083.06
2023-04-29T12:40:25.562Z,63012.03
2023-04-29T12:45:30.598Z,63165.06
2023-04-29T12:50:36.426Z,63182.31
2023-04-29T12:55:40.084Z,63202.03
2023-04-29T13:00:42.656Z,63158.47
2023-04-29T13:05:47.298Z,62970.09
2023-04-29T13:10:49.905Z,62911.50
2023-04-29T13:15:52.528Z,63088.97
2023-04-29T13:20:56.332Z,63231.38
2023-04-29T13:25:58.743Z,63313.53
2023-04-29T13:31:01.330Z,63246.41
2023-04-29T13:36:05.907Z,63112.91
2023-04-29T13:41:11.522Z,63052.78
2023-04-29T13:46:20.944Z,63168.75
2023-04-29T13:52:03.902Z,63161.47
2023-04-29T14:07:00.066Z,62805.34
2023-04-29T14:12:02.788Z,62975.53
2023-04-29T14:17:05.654Z,63091.28
2023-04-29T14:22:09.539Z,63025.03
2023-04-29T14:27:12.185Z,62944.91
2023-04-29T14:32:14.771Z,62785.41
2023-04-29T14:37:18.793Z,62720.13
2023-04-29T14:42:21.354Z,62681.88
2023-04-29T14:47:24.527Z,62641.56
2023-04-29T14:52:29.668Z,62690.41
2023-04-29T14:57:32.299Z,62728.63
2023-04-29T15:02:35.037Z,62730.94
2023-04-29T15:07:39.261Z,62657.72
2023-04-29T15:12:41.839Z,62634.13
2023-04-29T15:17:44.732Z,62677.06
2023-04-29T15:22:48.681Z,62680.19
2023-04-29T15:27:51.708Z,62638.22
2023-04-29T15:32:54.231Z,62568.44
2023-04-29T15:37:59.306Z,62571.63
2023-04-29T15:43:01.880Z,62523.03
2023-04-29T15:48:04.908Z,62658.13
2023-04-29T15:53:08.920Z,62876.22
2023-04-29T15:58:11.583Z,62778.72
2023-04-29T16:03:14.260Z,62747.22
2023-04-29T16:08:18.243Z,62631.47
2023-04-29T16:13:20.858Z,62560.75
2023-04-29T16:18:23.454Z,62510.69
2023-04-29T16:23:27.317Z,62470.38
2023-04-29T16:28:29.904Z,62452.44
2023-04-29T16:33:32.517Z,62464.91
2023-04-29T16:38:37.503Z,62463.19
2023-04-29T16:43:40.103Z,62451.47
2023-04-29T16:48:42.735Z,62473.69
2023-04-29T16:53:46.914Z,62533.59
2023-04-29T16:58:49.681Z,62697.81
2023-04-29T17:03:52.433Z,62747.69
2023-04-29T17:08:56.603Z,62821.66
2023-04-29T17:13:59.245Z,62818.69
2023-04-29T17:19:01.886Z,62808.50
2023-04-29T17:24:06.168Z,62756.94
2023-04-29T17:29:09.062Z,62628.06
2023-04-29T17:34:18.477Z,62600.13
2023-04-29T17:39:23.094Z,62508.03
2023-04-29T17:44:26.055Z,62445.91
2023-04-29T17:49:28.713Z,62431.00
2023-04-29T17:54:32.868Z,62360.81
2023-04-29T17:59:35.939Z,62351.13
2023-04-29T18:04:40.613Z,62339.22
2023-04-29T18:09:44.658Z,62315.19
2023-04-29T18:14:48.718Z,62305.88
2023-04-29T18:19:51.394Z,62275.53
2023-04-29T18:24:56.309Z,62253.16
2023-04-29T18:30:00.572Z,62190.00
2023-04-29T18:35:03.952Z,62219.50
2023-04-29T18:40:08.617Z,62153.16
2023-04-29T18:45:11.220Z,62108.28
2023-04-29T18:50:14.091Z,62109.25
2023-04-29T18:55:18.177Z,62102.66
2023-04-29T19:00:21.831Z,62077.41
2023-04-29T19:05:24.606Z,62080.13
2023-04-29T19:10:28.593Z,62063.47
2023-04-29T19:15:32.116Z,62028.75
2023-04-29T19:20:35.430Z,62000.91
2023-04-29T19:25:39.368Z,61997.88
2023-04-29T19:30:42.134Z,62000.22
2023-04-29T19:35:44.869Z,61980.56
2023-04-29T19:40:48.971Z,61962.41
2023-04-29T19:45:51.579Z,61925.31
2023-04-29T19:50:54.232Z,61926.78
2023-04-29T19:55:58.096Z,61950.03
2023-04-29T20:01:00.753Z,61936.88
2023-04-29T20:06:04.111Z,61927.06
2023-04-29T20:11:08.209Z,61900.19
2023-04-29T20:16:11.228Z,61880.44
2023-04-29T20:21:14.108Z,61837.94
2023-04-29T20:26:19.671Z,61842.72
2023-04-29T20:31:22.534Z,61802.91
2023-04-29T20:36:26.253Z,61770.78
2023-04-29T20:41:30.064Z,61766.00
2023-04-29T20:46:32.755Z,61799.94
2023-04-29T20:51:35.399Z,61757.03
2023-04-29T20:56:39.325Z,61775.53
2023-04-29T21:01:42.095Z,61782.47
2023-04-29T21:06:44.954Z,61715.91
2023-04-29T21:11:49.246Z,61719.31
2023-04-29T21:16:51.947Z,61708.44
2023-04-29T21:21:54.549Z,61728.50
2023-04-29T21:26:58.482Z,61698.56
2023-04-29T21:32:01.113Z,61692.03
2023-04-29T21:37:03.656Z,61701.59
2023-04-29T21:42:07.699Z,61686.88
2023-04-29T21:47:10.324Z,61635.34
2023-04-29T21:52:13.307Z,61680.28
2023-04-29T21:57:17.261Z,61601.81
2023-04-29T22:02:24.964Z,61597.38
2023-04-29T22:07:27.617Z,61625.09
2023-04-29T22:12:31.605Z,61648.78
2023-04-29T22:17:34.209Z,61612.66
2023-04-29T22:22:36.919Z,61590.13
2023-04-29T22:27:40.829Z,61655.53
2023-04-29T22:32:43.413Z,61611.56
2023-04-29T22:37:46.093Z,61561.28
2023-04-29T22:42:50.016Z,61557.91
2023-04-29T22:47:52.691Z,61561.34
2023-04-29T22:52:55.311Z,61585.47
2023-04-29T22:57:59.236Z,61560.03
2023-04-29T23:03:01.949Z,61560.47
2023-04-29T23:08:05.380Z,61532.88
2023-04-29T23:13:09.356Z,61543.56
2023-04-29T23:18:12.108Z,61523.38
2023-04-29T23:23:14.767Z,61534.47
2023-04-29T23:28:18.757Z,61498.81
2023-04-29T23:33:21.501Z,61526.94
2023-04-29T23:38:24.074Z,61529.59
2023-04-29T23:43:27.998Z,61496.91
2023-04-29T23:48:31.015Z,61497.75
2023-04-29T23:53:33.646Z,61522.97
2023-04-29T23:58:37.600Z,61452.56
